Terminal Aerodrome Forecast
Issued by NWS

Home | Current Version | Previous Version | Text Only | Print | Product List | Glossary On
Versions: 1 2 3 4 5 6 7 8 9 10 11 12 13 14 15 16 17 18 19 20 21 22 23 24 25 26 27 28 29 30 31 32 33 34
000
FTUS41 KBOX 311140
TAFFMH
TAF
KFMH 311140Z 3112/0112 31021G30KT 1/2SM SN OVC003
     FM311400 31021G37KT P6SM OVC008
     FM311600 31021G37KT P6SM BKN025
     FM311700 31021G37KT P6SM BKN035
     FM311900 31021G36KT P6SM SCT110
     FM010600 29015G28KT P6SM FEW080=

USA.gov is the U.S. government's official web portal to all federal, state and local government web resources and services.